createdAt,value
2019-03-25T00:01:39.778Z,100648.92
2019-03-25T00:04:08.664Z,100647.44
2019-03-25T00:06:37.734Z,100643.84
2019-03-25T00:09:07.703Z,100638.53
2019-03-25T00:11:38.032Z,100640.34
2019-03-25T00:14:07.112Z,100639.00
2019-03-25T00:16:36.183Z,100644.73
2019-03-25T00:19:05.523Z,100643.42
2019-03-25T00:21:34.409Z,100637.52
2019-03-25T00:24:03.704Z,100635.09
2019-03-25T00:26:32.619Z,100637.39
2019-03-25T00:29:01.521Z,100638.41
2019-03-25T00:31:30.457Z,100639.05
2019-03-25T00:33:59.747Z,100641.02
2019-03-25T00:36:28.864Z,100639.55
2019-03-25T00:38:57.752Z,100636.10
2019-03-25T00:41:28.291Z,100643.16
2019-03-25T00:43:58.965Z,100631.19
2019-03-25T00:46:27.889Z,100631.02
2019-03-25T00:48:56.777Z,100624.11
2019-03-25T00:51:27.591Z,100628.53
2019-03-25T00:53:57.745Z,100636.87
2019-03-25T00:56:26.639Z,100639.82
2019-03-25T00:58:55.621Z,100639.82
2019-03-25T01:01:25.814Z,100640.14
2019-03-25T01:03:58.002Z,100632.47
2019-03-25T01:06:26.935Z,100628.38
2019-03-25T01:08:56.219Z,100633.13
2019-03-25T01:11:25.156Z,100633.78
2019-03-25T01:13:54.046Z,100628.73
2019-03-25T01:16:23.575Z,100630.20
2019-03-25T01:18:52.448Z,100628.23
2019-03-25T01:21:21.690Z,100622.69
2019-03-25T01:23:51.027Z,100620.22
2019-03-25T01:26:19.944Z,100627.11
2019-03-25T01:28:49.152Z,100622.05
2019-03-25T01:31:18.305Z,100619.75
2019-03-25T01:33:47.200Z,100619.59
2019-03-25T01:36:16.172Z,100618.60
2019-03-25T01:38:45.154Z,100617.13
2019-03-25T01:41:15.473Z,100611.88
2019-03-25T01:43:44.326Z,100613.37
2019-03-25T01:46:13.528Z,100612.88
2019-03-25T01:48:42.385Z,100623.37
2019-03-25T01:51:11.304Z,100615.83
2019-03-25T01:53:40.149Z,100619.28
2019-03-25T01:56:09.335Z,100620.09
2019-03-25T01:58:38.195Z,100622.72
2019-03-25T02:01:08.917Z,100619.28
2019-03-25T02:03:37.785Z,100620.09
2019-03-25T02:06:08.509Z,100623.70
2019-03-25T02:08:37.387Z,100621.41
2019-03-25T02:11:07.543Z,100620.91
2019-03-25T02:13:36.588Z,100626.98
2019-03-25T02:16:05.577Z,100622.72
2019-03-25T02:18:34.558Z,100622.89
2019-03-25T02:21:05.067Z,100631.25
2019-03-25T02:23:33.920Z,100635.84
2019-03-25T02:26:02.882Z,100635.49
2019-03-25T02:28:31.779Z,100637.46
2019-03-25T02:31:00.749Z,100640.25
2019-03-25T02:33:31.175Z,100636.16
2019-03-25T02:36:00.110Z,100634.66
2019-03-25T02:38:28.922Z,100634.49
2019-03-25T02:40:58.205Z,100636.45
2019-03-25T02:43:28.636Z,100637.25
2019-03-25T02:45:58.681Z,100636.73
2019-03-25T02:48:27.670Z,100637.55
2019-03-25T02:50:56.760Z,100637.03
2019-03-25T02:53:27.443Z,100640.31
2019-03-25T02:55:56.417Z,100636.34
2019-03-25T02:58:25.275Z,100641.76
2019-03-25T04:48:40.000Z,100686.11
2019-03-25T04:51:09.238Z,100688.13
2019-03-25T04:53:38.248Z,100686.08
2019-03-25T04:56:08.305Z,100689.25
2019-03-25T04:58:37.366Z,100692.71
2019-03-25T05:01:06.967Z,100694.45
2019-03-25T05:03:36.228Z,100691.68
2019-03-25T05:06:05.277Z,100694.16
2019-03-25T05:08:35.691Z,100695.34
2019-03-25T05:11:05.261Z,100692.84
2019-03-25T05:13:34.570Z,100691.89
2019-03-25T05:16:03.618Z,100692.23
2019-03-25T05:18:32.575Z,100691.66
2019-03-25T05:21:01.808Z,100696.97
2019-03-25T05:23:30.968Z,100700.30
2019-03-25T05:26:00.424Z,100700.93
2019-03-25T05:28:29.445Z,100693.59
2019-03-25T05:30:58.315Z,100697.50
2019-03-25T05:33:27.235Z,100696.78
2019-03-25T05:35:56.096Z,100697.89
2019-03-25T05:38:25.078Z,100699.00
2019-03-25T05:40:54.844Z,100702.62
2019-03-25T05:43:23.753Z,100708.84
2019-03-25T05:45:53.550Z,100716.70
2019-03-25T05:48:22.841Z,100709.75
2019-03-25T05:50:51.799Z,100712.55
2019-03-25T05:53:20.770Z,100710.59
2019-03-25T05:55:49.797Z,100714.34
2019-03-25T05:58:18.723Z,100709.03
2019-03-25T06:00:47.962Z,100710.81
2019-03-25T06:03:16.873Z,100715.95
2019-03-25T06:05:45.741Z,100715.03
2019-03-25T06:08:14.969Z,100716.84
2019-03-25T06:10:43.866Z,100719.24
2019-03-25T06:13:12.771Z,100720.06
2019-03-25T06:15:41.732Z,100720.75
2019-03-25T06:18:11.262Z,100720.86
2019-03-25T06:20:40.479Z,100718.80
2019-03-25T06:23:09.750Z,100715.85
2019-03-25T06:25:38.637Z,100721.16
2019-03-25T06:28:09.744Z,100715.69
2019-03-25T06:30:38.645Z,100722.64
2019-03-25T06:33:12.455Z,100723.70
2019-03-25T06:35:38.475Z,100725.11
2019-03-25T06:38:08.647Z,100729.08
2019-03-25T06:40:38.260Z,100734.73
2019-03-25T06:43:07.211Z,100742.17
2019-03-25T06:45:36.226Z,100740.12
2019-03-25T06:48:09.153Z,100741.04
2019-03-25T06:50:38.042Z,100742.92
2019-03-25T06:53:07.014Z,100741.92
2019-03-25T06:55:35.904Z,100741.84
2019-03-25T06:58:04.836Z,100744.27
2019-03-25T07:00:33.766Z,100742.44
2019-03-25T07:03:03.078Z,100740.60
2019-03-25T07:05:33.429Z,100741.23
2019-03-25T07:08:02.325Z,100734.03
2019-03-25T07:10:33.826Z,100732.42
2019-03-25T07:13:03.348Z,100735.80
2019-03-25T07:15:32.737Z,100735.71
2019-03-25T07:18:03.966Z,100742.33
2019-03-25T07:20:32.875Z,100738.16
2019-03-25T07:23:01.901Z,100738.69
2019-03-25T07:25:30.888Z,100741.23
2019-03-25T07:27:59.903Z,100743.79
2019-03-25T07:30:29.922Z,100744.89
2019-03-25T07:32:58.817Z,100735.54
2019-03-25T07:35:29.889Z,100742.05
2019-03-25T07:38:00.788Z,100743.97
2019-03-25T07:40:30.077Z,100742.18
2019-03-25T07:42:59.301Z,100739.88
2019-03-25T07:45:28.205Z,100738.08
2019-03-25T07:47:57.106Z,100740.57
2019-03-25T07:50:26.019Z,100742.32
2019-03-25T07:52:54.927Z,100739.39
2019-03-25T07:55:24.016Z,100743.66
2019-03-25T07:57:52.950Z,100742.36
2019-03-25T08:00:22.714Z,100737.45
2019-03-25T08:02:51.609Z,100732.42
2019-03-25T08:05:20.562Z,100722.69
2019-03-25T08:07:49.476Z,100727.75
2019-03-25T08:10:34.535Z,100723.52
2019-03-25T08:13:03.841Z,100722.78
2019-03-25T08:15:33.249Z,100721.05
2019-03-25T08:18:03.063Z,100717.42
2019-03-25T08:20:31.985Z,100719.19
2019-03-25T08:23:00.909Z,100711.20
2019-03-25T08:25:29.984Z,100707.15
2019-03-25T08:28:00.317Z,100708.20
2019-03-25T08:30:29.627Z,100719.41
2019-03-25T08:32:58.646Z,100724.52
2019-03-25T08:35:27.557Z,100726.48
2019-03-25T08:37:56.506Z,100716.95
2019-03-25T08:40:25.463Z,100721.06
2019-03-25T08:42:54.483Z,100720.22
2019-03-25T08:45:23.627Z,100721.06
2019-03-25T08:47:52.670Z,100733.70
2019-03-25T08:50:21.639Z,100736.69
2019-03-25T08:52:50.655Z,100738.32
2019-03-25T08:55:19.639Z,100741.77
2019-03-25T08:57:50.925Z,100736.51
2019-03-25T09:00:20.085Z,100736.82
2019-03-25T09:02:49.281Z,100737.48
2019-03-25T09:05:18.268Z,100746.04
2019-03-25T09:07:47.306Z,100747.49
2019-03-25T09:10:16.597Z,100748.83
2019-03-25T09:12:45.706Z,100750.94
2019-03-25T09:15:15.019Z,100746.50
2019-03-25T09:17:43.945Z,100748.16
2019-03-25T09:20:14.089Z,100746.02
2019-03-25T09:22:42.979Z,100746.84
2019-03-25T09:25:12.517Z,100742.91
2019-03-25T09:27:41.957Z,100739.28
2019-03-25T09:30:14.235Z,100737.48
2019-03-25T09:32:43.174Z,100729.75
2019-03-25T09:35:12.890Z,100734.84
2019-03-25T09:37:41.882Z,100732.56
2019-03-25T09:40:12.725Z,100732.41
2019-03-25T09:42:41.857Z,100723.04
2019-03-25T09:45:17.382Z,100721.07
2019-03-25T09:47:47.499Z,100722.52
2019-03-25T09:50:17.556Z,100728.61
2019-03-25T09:52:46.470Z,100731.22
2019-03-25T09:55:16.681Z,100723.31
2019-03-25T09:57:45.808Z,100726.59
2019-03-25T10:00:15.189Z,100729.05
2019-03-25T10:02:44.249Z,100726.57
2019-03-25T10:05:13.122Z,100723.41
2019-03-25T10:07:43.952Z,100731.17
2019-03-25T10:10:14.468Z,100724.20
2019-03-25T10:12:43.376Z,100727.11
2019-03-25T10:15:14.388Z,100725.60
2019-03-25T10:17:45.746Z,100728.65
2019-03-25T10:20:14.881Z,100735.16
2019-03-25T10:22:43.830Z,100728.65
2019-03-25T10:25:14.213Z,100739.94
2019-03-25T10:27:43.243Z,100737.85
2019-03-25T10:30:15.494Z,100728.59
2019-03-25T10:32:44.505Z,100736.80
2019-03-25T10:35:15.103Z,100730.16
2019-03-25T10:37:45.111Z,100727.81
2019-03-25T10:40:14.252Z,100729.80
2019-03-25T10:42:43.281Z,100722.33
2019-03-25T10:45:13.506Z,100722.14
2019-03-25T10:47:45.599Z,100716.66
2019-03-25T10:50:14.718Z,100721.51
2019-03-25T10:52:43.872Z,100722.88
2019-03-25T10:55:13.070Z,100720.11
2019-03-25T10:57:42.136Z,100719.67
2019-03-25T11:00:13.186Z,100706.59
2019-03-25T11:02:42.216Z,100710.98
2019-03-25T11:05:12.115Z,100705.00
2019-03-25T11:10:11.740Z,100691.85
2019-03-25T11:12:41.860Z,100692.20
2019-03-25T11:15:11.310Z,100695.86
2019-03-25T11:17:40.214Z,100693.23
2019-03-25T11:20:11.599Z,100690.78
2019-03-25T11:22:40.521Z,100688.92
2019-03-25T11:25:10.777Z,100686.39
2019-03-25T11:27:39.834Z,100678.96
2019-03-25T11:30:09.509Z,100676.64
2019-03-25T11:32:38.462Z,100677.75
2019-03-25T11:35:10.211Z,100680.83
2019-03-25T11:37:40.637Z,100676.76
2019-03-25T11:40:12.151Z,100691.75
2019-03-25T11:42:41.107Z,100686.44
2019-03-25T11:45:12.281Z,100677.36
2019-03-25T11:47:41.666Z,100674.70
2019-03-25T11:50:12.082Z,100683.95
2019-03-25T11:52:42.204Z,100679.43
2019-03-25T11:55:13.611Z,100683.59
2019-03-25T11:57:42.682Z,100680.87
2019-03-25T12:00:13.371Z,100680.59
2019-03-25T12:02:43.072Z,100684.20
2019-03-25T12:05:12.292Z,100689.91
2019-03-25T12:07:41.212Z,100677.33
2019-03-25T12:10:11.653Z,100676.09
2019-03-25T12:12:40.610Z,100685.36
2019-03-25T12:15:10.721Z,100680.03
2019-03-25T12:17:39.600Z,100678.80
2019-03-25T12:20:09.199Z,100678.02
2019-03-25T12:22:38.322Z,100666.42
2019-03-25T12:25:07.921Z,100665.13
2019-03-25T12:27:38.318Z,100654.67
2019-03-25T12:30:08.975Z,100647.78
2019-03-25T12:32:37.865Z,100649.67
2019-03-25T12:35:07.005Z,100640.47
2019-03-25T12:37:37.901Z,100634.06
2019-03-25T12:40:08.008Z,100631.92
2019-03-25T12:42:37.114Z,100632.94
2019-03-25T12:45:07.878Z,100640.87
2019-03-25T12:47:36.757Z,100641.39
2019-03-25T12:50:07.568Z,100638.30
2019-03-25T12:52:36.660Z,100635.67
2019-03-25T12:55:06.055Z,100634.27
2019-03-25T12:57:35.387Z,100628.92
2019-03-25T13:00:05.697Z,100619.09
2019-03-25T13:02:35.067Z,100618.67
2019-03-25T13:05:04.324Z,100623.34
2019-03-25T13:07:33.363Z,100610.98
2019-03-25T13:10:02.518Z,100621.98
2019-03-25T13:12:31.420Z,100613.87
2019-03-25T13:15:00.705Z,100628.90
2019-03-25T13:17:30.967Z,100651.09
2019-03-25T13:19:59.909Z,100664.23
2019-03-25T13:22:28.784Z,100656.85
2019-03-25T13:24:57.705Z,100643.55
2019-03-25T13:27:26.598Z,100644.82
2019-03-25T13:29:55.874Z,100641.43
2019-03-25T13:32:24.868Z,100627.88
2019-03-25T13:34:54.822Z,100626.18
2019-03-25T13:37:24.151Z,100629.01
2019-03-25T13:39:53.070Z,100618.78
2019-03-25T13:42:22.309Z,100612.20
2019-03-25T13:44:51.451Z,100606.00
2019-03-25T13:47:20.419Z,100617.42
2019-03-25T13:49:49.451Z,100622.34
2019-03-25T13:52:18.316Z,100612.56
2019-03-25T13:54:48.538Z,100615.58
2019-03-25T13:57:17.530Z,100617.94
2019-03-25T13:59:46.474Z,100621.10
2019-03-25T14:02:16.452Z,100614.05
2019-03-25T14:04:45.422Z,100614.27
2019-03-25T14:07:14.432Z,100601.11
2019-03-25T14:09:43.461Z,100601.20
2019-03-25T14:12:13.870Z,100600.60
2019-03-25T14:14:44.182Z,100598.26
2019-03-25T14:17:13.189Z,100594.88
2019-03-25T14:19:42.133Z,100595.60
2019-03-25T14:22:11.127Z,100583.95
2019-03-25T14:24:40.199Z,100599.97
2019-03-25T14:27:09.476Z,100595.37
2019-03-25T14:29:38.416Z,100591.69
2019-03-25T14:32:07.480Z,100601.80
2019-03-25T14:34:44.432Z,100604.48
2019-03-25T14:37:07.617Z,100620.89
2019-03-25T14:39:36.578Z,100641.99
2019-03-25T14:42:05.637Z,100640.69
2019-03-25T14:44:34.937Z,100649.71
2019-03-25T14:47:03.803Z,100649.03
2019-03-25T14:49:32.775Z,100602.56
2019-03-25T14:52:01.663Z,100615.14
2019-03-25T14:54:30.825Z,100618.88
2019-03-25T14:56:59.722Z,100612.30
2019-03-25T14:59:28.631Z,100626.64
2019-03-25T15:01:57.547Z,100645.17
2019-03-25T15:04:26.467Z,100625.13
2019-03-25T15:06:55.337Z,100627.80
2019-03-25T15:09:24.250Z,100621.31
2019-03-25T15:11:53.158Z,100625.83
2019-03-25T15:14:22.595Z,100625.88
2019-03-25T15:16:52.185Z,100620.98
2019-03-25T15:19:21.078Z,100606.45
2019-03-25T15:21:50.960Z,100617.08
2019-03-25T15:24:19.861Z,100617.70
2019-03-25T15:26:48.841Z,100633.14
2019-03-25T15:29:19.546Z,100627.38
2019-03-25T15:31:48.469Z,100610.88
2019-03-25T15:34:17.668Z,100627.28
2019-03-25T15:36:46.559Z,100628.19
2019-03-25T15:39:15.539Z,100638.20
2019-03-25T15:41:44.449Z,100642.78
2019-03-25T15:44:14.777Z,100647.82
2019-03-25T15:46:43.712Z,100644.28
2019-03-25T15:49:12.564Z,100650.50
2019-03-25T15:51:43.992Z,100653.04
2019-03-25T15:54:14.705Z,100652.12
2019-03-25T15:56:44.050Z,100644.33
2019-03-25T15:59:12.901Z,100663.84
2019-03-25T16:01:43.614Z,100679.88
2019-03-25T16:04:12.564Z,100686.70
2019-03-25T16:06:41.435Z,100693.33
2019-03-25T16:09:11.593Z,100699.59
2019-03-25T16:11:40.792Z,100714.08
2019-03-25T16:14:09.660Z,100708.02
2019-03-25T16:16:40.187Z,100693.75
2019-03-25T16:19:09.482Z,100691.16
2019-03-25T16:21:38.588Z,100695.43
2019-03-25T16:24:07.498Z,100696.43
2019-03-25T16:26:36.523Z,100697.72
2019-03-25T16:29:05.761Z,100695.77
2019-03-25T16:31:34.746Z,100688.19
2019-03-25T16:34:04.045Z,100695.44
2019-03-25T16:36:33.014Z,100707.23
2019-03-25T16:39:03.523Z,100704.95
2019-03-25T16:41:36.991Z,100699.67
2019-03-25T16:44:07.659Z,100710.63
2019-03-25T16:46:36.789Z,100708.51
2019-03-25T16:49:07.321Z,100707.17
2019-03-25T16:51:36.449Z,100712.57
2019-03-25T16:54:05.374Z,100717.34
2019-03-25T16:56:34.687Z,100713.20
2019-03-25T16:59:03.868Z,100720.92
2019-03-25T17:01:32.771Z,100726.48
2019-03-25T17:04:03.425Z,100727.63
2019-03-25T17:06:33.525Z,100722.71
2019-03-25T17:09:05.078Z,100731.08
2019-03-25T17:11:34.608Z,100731.54
2019-03-25T17:14:04.717Z,100732.03
2019-03-25T17:16:33.950Z,100742.04
2019-03-25T17:19:03.081Z,100741.72
2019-03-25T17:21:32.028Z,100742.70
2019-03-25T17:24:01.093Z,100736.30
2019-03-25T17:26:42.023Z,100737.78
2019-03-25T17:29:04.001Z,100735.62
2019-03-25T17:31:33.027Z,100741.52
2019-03-25T17:34:02.152Z,100755.63
2019-03-25T17:36:31.132Z,100760.85
2019-03-25T17:39:00.103Z,100770.83
2019-03-25T17:41:29.419Z,100788.50
2019-03-25T17:43:58.366Z,100794.33
2019-03-25T17:46:27.277Z,100797.39
2019-03-25T17:48:57.329Z,100795.88
2019-03-25T17:51:26.315Z,100802.05
2019-03-25T17:53:55.209Z,100806.59
2019-03-25T17:56:24.297Z,100840.13
2019-03-25T17:58:53.188Z,100848.70
2019-03-25T18:01:33.858Z,100855.28
2019-03-25T18:04:03.061Z,100855.95
2019-03-25T18:06:32.008Z,100867.58
2019-03-25T18:09:01.055Z,100869.05
2019-03-25T18:11:30.435Z,100858.51
2019-03-25T18:13:59.786Z,100845.47
2019-03-25T18:16:28.964Z,100842.06
2019-03-25T18:18:58.965Z,100846.37
2019-03-25T18:21:28.025Z,100847.42
2019-03-25T18:23:57.098Z,100851.44
2019-03-25T18:26:26.039Z,100850.05
2019-03-25T18:28:54.982Z,100845.61
2019-03-25T18:31:23.925Z,100846.17
2019-03-25T18:33:53.293Z,100851.33
2019-03-25T18:36:22.522Z,100859.73
2019-03-25T18:38:51.699Z,100853.01
2019-03-25T18:41:20.684Z,100848.08
2019-03-25T18:43:50.085Z,100851.29
2019-03-25T18:46:22.168Z,100848.97
2019-03-25T18:48:51.668Z,100844.15
2019-03-25T18:51:20.638Z,100843.47
2019-03-25T18:53:49.602Z,100853.26
2019-03-25T18:56:19.603Z,100847.66
2019-03-25T18:58:48.527Z,100855.45
2019-03-25T19:01:18.631Z,100854.55
2019-03-25T19:03:47.618Z,100857.13
2019-03-25T19:06:18.447Z,100861.42
2019-03-25T19:08:48.236Z,100866.22
2019-03-25T19:11:17.257Z,100860.23
2019-03-25T19:13:46.628Z,100862.80
2019-03-25T19:16:17.005Z,100873.94
2019-03-25T19:18:46.337Z,100902.94
2019-03-25T19:21:15.288Z,100907.82
2019-03-25T19:23:44.197Z,100907.68
2019-03-25T19:26:13.620Z,100906.52
2019-03-25T19:28:42.627Z,100905.95
2019-03-25T19:31:11.489Z,100911.45
2019-03-25T19:33:40.716Z,100908.89
2019-03-25T19:36:09.728Z,100912.05
2019-03-25T19:38:38.796Z,100924.22
2019-03-25T19:41:09.246Z,100927.77
2019-03-25T19:43:38.249Z,100928.95
2019-03-25T19:46:07.190Z,100932.88
2019-03-25T19:48:36.506Z,100928.95
2019-03-25T19:51:05.403Z,100929.30
2019-03-25T19:53:34.354Z,100931.77
2019-03-25T19:56:03.578Z,100937.82
2019-03-25T19:58:32.627Z,100934.24
2019-03-25T20:01:01.580Z,100937.20
2019-03-25T20:03:32.834Z,100945.75
2019-03-25T20:06:01.502Z,100950.83
2019-03-25T20:08:30.791Z,100947.73
2019-03-25T20:11:00.109Z,100950.97
2019-03-25T20:13:29.264Z,100957.12
2019-03-25T20:15:58.214Z,100954.31
2019-03-25T20:18:27.559Z,100958.38
2019-03-25T20:20:56.536Z,100968.04
2019-03-25T20:23:25.415Z,100973.45
2019-03-25T20:25:54.360Z,100975.14
2019-03-25T20:28:23.395Z,100966.03
2019-03-25T20:30:52.453Z,100968.09
2019-03-25T20:33:21.550Z,100975.83
2019-03-25T20:35:50.655Z,100972.05
2019-03-25T20:38:20.629Z,100965.32
2019-03-25T20:40:49.722Z,100975.52
2019-03-25T20:43:18.987Z,100986.10
2019-03-25T20:45:47.933Z,101006.16
2019-03-25T20:48:17.186Z,101010.08
2019-03-25T20:50:48.419Z,101005.47
2019-03-25T20:53:17.745Z,101000.02
2019-03-25T20:55:48.268Z,100993.28
2019-03-25T20:58:19.800Z,100992.25
2019-03-25T21:00:54.691Z,100994.13
2019-03-25T21:03:23.756Z,100997.36
2019-03-25T21:05:52.797Z,101002.37
2019-03-25T21:08:22.274Z,101007.69
2019-03-25T21:10:52.232Z,101011.26
2019-03-25T21:13:21.265Z,101008.78
2019-03-25T21:15:50.258Z,101010.91
2019-03-25T21:18:21.149Z,101017.92
2019-03-25T21:20:50.230Z,101014.48
2019-03-25T21:23:19.206Z,101008.92
2019-03-25T21:25:48.136Z,101021.24
2019-03-25T21:28:17.023Z,101016.50
2019-03-25T21:30:48.138Z,101011.42
2019-03-25T21:33:18.720Z,101013.07
2019-03-25T21:35:48.521Z,101014.98
2019-03-25T21:38:17.566Z,101016.30
2019-03-25T21:40:46.894Z,101025.30
2019-03-25T21:43:16.068Z,101020.90
2019-03-25T21:45:45.059Z,101026.12
2019-03-25T21:48:14.291Z,101025.64
2019-03-25T21:50:43.268Z,101031.68
2019-03-25T21:53:13.791Z,101033.81
2019-03-25T21:55:44.138Z,101034.29
2019-03-25T21:58:13.041Z,101037.28
2019-03-25T22:00:42.156Z,101036.42
2019-03-25T22:03:12.531Z,101038.69
2019-03-25T22:05:41.613Z,101042.12
2019-03-25T22:08:10.533Z,101038.69
2019-03-25T22:10:42.762Z,101039.52
2019-03-25T22:13:10.591Z,101040.81
2019-03-25T22:15:39.552Z,101044.63
2019-03-25T22:18:08.591Z,101045.55
2019-03-25T22:20:37.501Z,101046.41
2019-03-25T22:23:06.517Z,101050.19
2019-03-25T22:25:35.513Z,101052.80
2019-03-25T22:28:05.166Z,101051.98
2019-03-25T22:30:34.177Z,101051.02
2019-03-25T22:33:03.095Z,101050.67
2019-03-25T22:35:32.046Z,101061.59
2019-03-25T22:38:01.171Z,101055.99
2019-03-25T22:40:30.142Z,101059.56
2019-03-25T22:42:59.062Z,101064.67
2019-03-25T22:45:30.642Z,101063.00
2019-03-25T22:47:59.919Z,101067.16
2019-03-25T22:50:30.901Z,101070.34
2019-03-25T22:53:00.374Z,101075.11
2019-03-25T22:55:29.572Z,101078.06
2019-03-25T22:57:58.593Z,101084.59
2019-03-25T23:00:38.709Z,101085.42
2019-03-25T23:03:09.106Z,101087.55
2019-03-25T23:05:38.074Z,101088.50
2019-03-25T23:08:07.324Z,101095.03
2019-03-25T23:10:36.644Z,101091.22
2019-03-25T23:13:05.579Z,101094.08
2019-03-25T23:15:34.494Z,101094.69
2019-03-25T23:18:05.655Z,101096.81
2019-03-25T23:20:35.066Z,101103.81
2019-03-25T23:23:04.140Z,101099.42
2019-03-25T23:25:33.455Z,101094.78
2019-03-25T23:28:02.533Z,101096.09
2019-03-25T23:30:31.382Z,101091.83
2019-03-25T23:33:00.605Z,101095.88
2019-03-25T23:35:29.526Z,101096.70
2019-03-25T23:38:00.015Z,101091.96
2019-03-25T23:40:28.881Z,101098.97
2019-03-25T23:42:57.875Z,101108.44
2019-03-25T23:45:26.776Z,101105.01
2019-03-25T23:47:55.684Z,101105.97
2019-03-25T23:50:24.579Z,101104.80
2019-03-25T23:52:53.851Z,101101.45
2019-03-25T23:55:23.661Z,101106.45
2019-03-25T23:57:52.594Z,101102.33
